Time;durP1;ratioP1;P1;durP2;ratioP2;P2;SDS_P1;SDS_P2;PMS_P1;PMS_P2;Temp;Humidity;BMP_temperature;BMP_pressure;BME280_temperature;BME280_humidity;BME280_pressure;Samples;Min_cycle;Max_cycle;Signal;HPM_P1;HPM_P2
2023/07/20 00:02:13;;;;;;;1.50;1.40;;;;;;;;;;6127773;23;20195;-92
2023/07/20 00:04:41;;;;;;;1.00;1.00;;;;;;;;;;6128016;23;20248;-92
2023/07/20 00:07:10;;;;;;;1.63;1.35;;;;;;;;;;6127644;23;20246;-92
2023/07/20 00:09:38;;;;;;;1.30;1.20;;;;;;;;;;6127097;23;20267;-92
2023/07/20 00:12:06;;;;;;;0.93;0.93;;;;;;;;;;6128389;23;20228;-92
2023/07/20 00:14:34;;;;;;;1.58;1.48;;;;;;;;;;6128111;23;20255;-92
2023/07/20 00:17:01;;;;;;;2.85;1.20;;;;;;;;;;6127400;23;20171;-93
2023/07/20 00:19:31;;;;;;;1.60;1.50;;;;;;;;;;6127139;23;20251;-92
2023/07/20 00:21:59;;;;;;;2.17;1.98;;;;;;;;;;6127868;23;20206;-92
2023/07/20 00:24:28;;;;;;;5.10;2.00;;;;;;;;;;6126864;23;20274;-92
2023/07/20 00:26:56;;;;;;;1.20;1.10;;;;;;;;;;6127014;23;20239;-92
2023/07/20 00:29:24;;;;;;;1.45;1.35;;;;;;;;;;6126755;23;20228;-92
2023/07/20 00:31:51;;;;;;;7.05;2.45;;;;;;;;;;6126905;23;20246;-92
2023/07/20 00:34:19;;;;;;;2.20;2.00;;;;;;;;;;6127255;23;20206;-92
2023/07/20 00:36:47;;;;;;;1.40;1.30;;;;;;;;;;6127454;23;20188;-93
2023/07/20 00:39:15;;;;;;;1.67;1.58;;;;;;;;;;6127636;23;20180;-92
2023/07/20 00:41:44;;;;;;;1.35;1.30;;;;;;;;;;6126706;23;20227;-92
2023/07/20 00:44:12;;;;;;;1.55;1.45;;;;;;;;;;6127373;23;20211;-91
2023/07/20 00:46:41;;;;;;;1.27;1.25;;;;;;;;;;6127149;23;20231;-92
2023/07/20 00:49:09;;;;;;;1.30;1.20;;;;;;;;;;6126155;23;20210;-91
2023/07/20 00:51:37;;;;;;;1.83;1.67;;;;;;;;;;6127131;23;20270;-92
2023/07/20 00:54:05;;;;;;;1.75;1.50;;;;;;;;;;6126814;23;20202;-92
2023/07/20 00:56:33;;;;;;;1.73;1.63;;;;;;;;;;6126659;23;20674;-92
2023/07/20 00:59:02;;;;;;;1.98;1.75;;;;;;;;;;6126488;23;20174;-92
2023/07/20 01:01:30;;;;;;;1.80;1.50;;;;;;;;;;6127051;23;20579;-92
2023/07/20 01:03:57;;;;;;;1.23;1.23;;;;;;;;;;6126648;23;20266;-92
2023/07/20 01:06:34;;;;;;;1.30;1.20;;;;;;;;;;6127104;23;20247;-92
2023/07/20 01:09:14;;;;;;;1.40;1.30;;;;;;;;;;6126725;23;20235;-92
2023/07/20 01:11:48;;;;;;;1.40;1.30;;;;;;;;;;6126930;23;20200;-91
2023/07/20 01:14:17;;;;;;;1.90;1.40;;;;;;;;;;6127154;23;20194;-94
2023/07/20 01:16:45;;;;;;;1.52;1.48;;;;;;;;;;6129128;23;20178;-92
2023/07/20 01:19:14;;;;;;;1.23;1.13;;;;;;;;;;6126315;23;20273;-92
2023/07/20 01:21:49;;;;;;;1.02;1.02;;;;;;;;;;6128437;23;20196;-92
2023/07/20 01:24:53;;;;;;;0.80;0.80;;;;;;;;;;6126763;23;20187;-93
2023/07/20 01:28:09;;;;;;;1.38;1.02;;;;;;;;;;6126978;23;20234;-92
2023/07/20 01:30:52;;;;;;;1.08;1.00;;;;;;;;;;6088933;23;20196;-92
2023/07/20 01:33:21;;;;;;;1.20;1.10;;;;;;;;;;6126802;23;20176;-92
2023/07/20 01:36:02;;;;;;;1.10;1.10;;;;;;;;;;6126713;23;20191;-92
2023/07/20 01:38:30;;;;;;;0.80;0.80;;;;;;;;;;6126673;23;20220;-91
2023/07/20 01:40:58;;;;;;;0.80;0.80;;;;;;;;;;6126111;23;20200;-92
2023/07/20 01:43:25;;;;;;;0.85;0.85;;;;;;;;;;6126604;23;20184;-92
2023/07/20 01:45:53;;;;;;;0.90;0.90;;;;;;;;;;6126674;23;20172;-92
2023/07/20 01:48:22;;;;;;;0.93;0.93;;;;;;;;;;6125726;23;20250;-92
2023/07/20 01:50:50;;;;;;;1.17;1.15;;;;;;;;;;6127205;23;20191;-92
2023/07/20 01:53:17;;;;;;;0.75;0.75;;;;;;;;;;6126418;23;20186;-92
2023/07/20 01:55:45;;;;;;;0.95;0.95;;;;;;;;;;6126380;23;20188;-93
2023/07/20 01:58:12;;;;;;;1.50;1.40;;;;;;;;;;6126453;23;20251;-92
2023/07/20 02:00:40;;;;;;;2.30;1.30;;;;;;;;;;6126583;23;20230;-93
2023/07/20 02:03:07;;;;;;;1.17;1.10;;;;;;;;;;6126817;23;20533;-92
2023/07/20 02:05:36;;;;;;;1.00;1.00;;;;;;;;;;6125885;23;20275;-92
2023/07/20 02:08:04;;;;;;;0.90;0.90;;;;;;;;;;6126515;23;20242;-92
2023/07/20 02:10:32;;;;;;;0.90;0.90;;;;;;;;;;6126001;23;20587;-92
2023/07/20 02:12:59;;;;;;;0.70;0.70;;;;;;;;;;6126089;23;20174;-92
2023/07/20 02:15:27;;;;;;;1.40;1.35;;;;;;;;;;6126474;23;20214;-92
2023/07/20 02:17:55;;;;;;;1.17;1.17;;;;;;;;;;6125864;23;20176;-93
2023/07/20 02:20:22;;;;;;;0.90;0.90;;;;;;;;;;6126223;23;20215;-93
2023/07/20 02:22:51;;;;;;;1.10;1.00;;;;;;;;;;6126418;23;20172;-92
2023/07/20 02:25:19;;;;;;;1.50;1.25;;;;;;;;;;6126337;23;20274;-92
2023/07/20 02:27:46;;;;;;;1.75;1.65;;;;;;;;;;6126078;23;20239;-92
2023/07/20 02:30:16;;;;;;;1.50;1.40;;;;;;;;;;6126595;23;20215;-92
2023/07/20 02:32:45;;;;;;;1.30;1.20;;;;;;;;;;6125954;23;20178;-93
2023/07/20 02:35:13;;;;;;;1.67;1.23;;;;;;;;;;6126615;23;20172;-92
2023/07/20 02:37:40;;;;;;;0.90;0.90;;;;;;;;;;6125992;23;20632;-93
2023/07/20 02:40:11;;;;;;;1.38;1.27;;;;;;;;;;6142668;23;20180;-92
2023/07/20 02:42:39;;;;;;;1.20;1.10;;;;;;;;;;6152609;23;20167;-93
2023/07/20 02:45:08;;;;;;;1.33;1.23;;;;;;;;;;6153779;23;20215;-93
2023/07/20 02:47:36;;;;;;;1.23;1.17;;;;;;;;;;6152737;23;20163;-92
2023/07/20 02:50:03;;;;;;;1.70;1.60;;;;;;;;;;6152388;23;20176;-92
2023/07/20 02:52:32;;;;;;;2.75;1.80;;;;;;;;;;6153492;23;20164;-92
2023/07/20 02:54:59;;;;;;;2.22;2.08;;;;;;;;;;6153533;23;20160;-92
2023/07/20 02:57:28;;;;;;;2.15;1.20;;;;;;;;;;6132475;23;20231;-92
2023/07/20 02:59:56;;;;;;;2.08;1.50;;;;;;;;;;6128924;23;20601;-93
2023/07/20 03:02:23;;;;;;;1.38;1.27;;;;;;;;;;6127295;23;20231;-92
2023/07/20 03:04:51;;;;;;;1.10;1.10;;;;;;;;;;6127257;23;20200;-92
2023/07/20 03:07:18;;;;;;;1.23;1.15;;;;;;;;;;6126479;23;20192;-92
2023/07/20 03:09:46;;;;;;;2.13;1.92;;;;;;;;;;6126071;23;20196;-93
2023/07/20 03:12:14;;;;;;;2.25;2.05;;;;;;;;;;6126249;23;20187;-92
2023/07/20 03:14:43;;;;;;;2.95;2.75;;;;;;;;;;6126614;23;20588;-92
2023/07/20 03:17:10;;;;;;;2.20;2.10;;;;;;;;;;6127209;23;20258;-92
2023/07/20 03:19:38;;;;;;;2.10;1.95;;;;;;;;;;6129765;23;20582;-92
2023/07/20 03:22:06;;;;;;;1.52;1.42;;;;;;;;;;6126642;23;20568;-92
2023/07/20 03:24:33;;;;;;;2.38;1.80;;;;;;;;;;6125855;23;20171;-92
2023/07/20 03:27:01;;;;;;;2.30;2.10;;;;;;;;;;6126062;23;20423;-93
2023/07/20 03:29:29;;;;;;;1.55;1.45;;;;;;;;;;6127029;23;20199;-93
2023/07/20 03:31:59;;;;;;;3.22;3.00;;;;;;;;;;6126233;23;20536;-92
2023/07/20 03:34:26;;;;;;;1.73;1.63;;;;;;;;;;6126645;23;20521;-92
2023/07/20 03:36:54;;;;;;;2.47;2.22;;;;;;;;;;6126840;23;20239;-92
2023/07/20 03:39:22;;;;;;;1.70;1.60;;;;;;;;;;6126035;23;20191;-93
2023/07/20 03:41:49;;;;;;;1.38;1.27;;;;;;;;;;6126940;23;20247;-92
2023/07/20 03:44:17;;;;;;;2.10;1.88;;;;;;;;;;6127002;23;20242;-92
2023/07/20 03:46:45;;;;;;;2.00;1.90;;;;;;;;;;6126278;23;20217;-93
2023/07/20 03:49:14;;;;;;;1.75;1.65;;;;;;;;;;6126354;23;20246;-93
2023/07/20 03:51:41;;;;;;;2.00;1.90;;;;;;;;;;6123519;23;20219;-93
2023/07/20 03:54:09;;;;;;;2.13;1.92;;;;;;;;;;6119678;23;20675;-92
2023/07/20 03:56:37;;;;;;;2.38;2.13;;;;;;;;;;6118294;23;20176;-92
2023/07/20 03:59:04;;;;;;;2.20;2.10;;;;;;;;;;6118966;23;20250;-93
2023/07/20 04:01:36;;;;;;;2.83;2.55;;;;;;;;;;6118224;23;20422;-92
2023/07/20 04:04:05;;;;;;;3.63;2.65;;;;;;;;;;6119275;23;20609;-93
2023/07/20 04:06:34;;;;;;;1.95;1.85;;;;;;;;;;6118237;23;20222;-92
2023/07/20 04:09:02;;;;;;;1.50;1.40;;;;;;;;;;6118237;23;20255;-92
2023/07/20 04:11:30;;;;;;;2.20;2.00;;;;;;;;;;6118076;23;20214;-91
2023/07/20 04:13:57;;;;;;;2.10;1.98;;;;;;;;;;6119505;23;20259;-93
2023/07/20 04:16:26;;;;;;;2.95;2.75;;;;;;;;;;6118328;23;20719;-92
2023/07/20 04:18:55;;;;;;;2.15;1.95;;;;;;;;;;6119009;23;20179;-93
2023/07/20 04:21:23;;;;;;;1.75;1.65;;;;;;;;;;6118263;23;20271;-93
2023/07/20 04:23:52;;;;;;;1.60;1.50;;;;;;;;;;6118772;23;20275;-92
2023/07/20 04:26:19;;;;;;;1.90;1.67;;;;;;;;;;6117920;23;20200;-91
2023/07/20 04:28:47;;;;;;;3.13;2.22;;;;;;;;;;6119973;23;20628;-93
2023/07/20 04:31:16;;;;;;;2.03;1.92;;;;;;;;;;6118963;23;20195;-92
2023/07/20 04:33:44;;;;;;;1.70;1.60;;;;;;;;;;6119856;23;20178;-92
2023/07/20 04:36:12;;;;;;;2.45;2.25;;;;;;;;;;6121078;23;20182;-93
2023/07/20 04:38:40;;;;;;;3.20;2.25;;;;;;;;;;6120081;23;20176;-92
2023/07/20 04:41:13;;;;;;;2.22;2.10;;;;;;;;;;6121120;23;20203;-92
2023/07/20 04:43:43;;;;;;;4.47;3.08;;;;;;;;;;6120595;23;20195;-92
2023/07/20 04:46:11;;;;;;;2.42;2.22;;;;;;;;;;6119949;23;20283;-93
2023/07/20 04:48:40;;;;;;;2.28;2.05;;;;;;;;;;6119183;23;20278;-92
2023/07/20 04:51:08;;;;;;;1.98;1.88;;;;;;;;;;6120111;23;20194;-92
2023/07/20 04:53:35;;;;;;;2.63;2.30;;;;;;;;;;6120299;23;20199;-92
2023/07/20 04:56:03;;;;;;;2.30;1.85;;;;;;;;;;6120138;23;20179;-92
2023/07/20 04:58:32;;;;;;;2.10;2.00;;;;;;;;;;6120014;23;20182;-92
2023/07/20 05:00:59;;;;;;;2.05;1.95;;;;;;;;;;6119336;23;20271;-92
2023/07/20 05:03:27;;;;;;;2.78;2.58;;;;;;;;;;6120090;23;20186;-92
2023/07/20 05:05:55;;;;;;;2.75;1.83;;;;;;;;;;6119778;23;20199;-93
2023/07/20 05:08:23;;;;;;;2.70;2.50;;;;;;;;;;6120483;23;20199;-93
2023/07/20 05:10:50;;;;;;;1.63;1.52;;;;;;;;;;6120037;23;20754;-92
2023/07/20 05:13:18;;;;;;;3.17;2.72;;;;;;;;;;6119624;23;20178;-94
2023/07/20 05:15:48;;;;;;;2.55;2.35;;;;;;;;;;6120112;23;20240;-92
2023/07/20 05:18:19;;;;;;;2.22;2.08;;;;;;;;;;6120077;23;20263;-93
2023/07/20 05:20:48;;;;;;;3.20;2.75;;;;;;;;;;6124094;23;20188;-92
2023/07/20 05:23:15;;;;;;;9.52;4.25;;;;;;;;;;6119925;23;20180;-92
2023/07/20 05:25:43;;;;;;;3.22;2.70;;;;;;;;;;6119697;23;20254;-93
2023/07/20 05:28:11;;;;;;;3.30;3.00;;;;;;;;;;6119534;23;20246;-93
2023/07/20 05:30:39;;;;;;;2.92;2.42;;;;;;;;;;6119319;23;20200;-92
2023/07/20 05:33:08;;;;;;;2.63;2.13;;;;;;;;;;6119833;23;20214;-93
2023/07/20 05:35:35;;;;;;;1.85;1.75;;;;;;;;;;6120030;23;20251;-93
2023/07/20 05:38:04;;;;;;;3.08;2.83;;;;;;;;;;6119848;23;20278;-93
2023/07/20 05:40:32;;;;;;;3.50;2.63;;;;;;;;;;6120166;23;20192;-92
2023/07/20 05:43:00;;;;;;;4.78;2.60;;;;;;;;;;6124589;23;20266;-94
2023/07/20 05:45:28;;;;;;;1.98;1.88;;;;;;;;;;6124516;23;20211;-92
2023/07/20 05:47:55;;;;;;;1.85;1.75;;;;;;;;;;6124912;23;20274;-94
2023/07/20 05:50:24;;;;;;;2.38;2.28;;;;;;;;;;6123942;23;20198;-92
2023/07/20 05:52:54;;;;;;;2.80;2.60;;;;;;;;;;6133233;23;20202;-93
2023/07/20 05:55:22;;;;;;;1.77;1.67;;;;;;;;;;6142191;23;20172;-93
2023/07/20 05:57:49;;;;;;;2.08;1.88;;;;;;;;;;6141501;23;20171;-93
2023/07/20 06:00:19;;;;;;;2.00;1.80;;;;;;;;;;6140371;23;20192;-93
2023/07/20 06:02:47;;;;;;;1.58;1.48;;;;;;;;;;6139521;23;20549;-92
2023/07/20 06:05:16;;;;;;;2.60;2.40;;;;;;;;;;6139481;23;20176;-94
2023/07/20 06:07:45;;;;;;;2.60;2.40;;;;;;;;;;6143377;23;20200;-93
2023/07/20 06:10:12;;;;;;;3.10;2.67;;;;;;;;;;6152214;23;20223;-93
2023/07/20 06:12:40;;;;;;;3.40;3.05;;;;;;;;;;6151195;23;20179;-93
2023/07/20 06:15:26;;;;;;;3.30;3.10;;;;;;;;;;6138988;23;20176;-93
2023/07/20 06:17:55;;;;;;;3.15;2.90;;;;;;;;;;6138906;23;20168;-94
2023/07/20 06:20:23;;;;;;;3.10;2.80;;;;;;;;;;6137169;23;20192;-93
2023/07/20 06:22:53;;;;;;;2.45;2.25;;;;;;;;;;6137061;23;20180;-93
2023/07/20 06:25:20;;;;;;;3.03;2.83;;;;;;;;;;6136083;23;20202;-92
2023/07/20 06:27:49;;;;;;;2.33;2.22;;;;;;;;;;6135289;23;20198;-93
2023/07/20 06:30:17;;;;;;;1.65;1.55;;;;;;;;;;6137043;23;20203;-92
2023/07/20 06:32:45;;;;;;;2.17;2.00;;;;;;;;;;6141298;23;20184;-94
2023/07/20 06:35:13;;;;;;;2.53;2.33;;;;;;;;;;6144211;23;20178;-94
2023/07/20 06:37:40;;;;;;;3.00;2.70;;;;;;;;;;6147689;23;20182;-94
2023/07/20 06:40:12;;;;;;;2.33;2.15;;;;;;;;;;6147695;23;20192;-93
2023/07/20 06:42:39;;;;;;;3.33;2.90;;;;;;;;;;6153305;23;20152;-94
2023/07/20 06:45:08;;;;;;;2.63;2.42;;;;;;;;;;6153377;23;20176;-95
2023/07/20 06:47:36;;;;;;;3.08;2.33;;;;;;;;;;6153415;23;20171;-94
2023/07/20 06:50:04;;;;;;;2.92;2.72;;;;;;;;;;6152278;23;20180;-93
2023/07/20 06:52:31;;;;;;;3.17;2.88;;;;;;;;;;6152208;23;20159;-92
2023/07/20 06:54:59;;;;;;;2.45;2.25;;;;;;;;;;6152734;23;20159;-93
2023/07/20 06:57:28;;;;;;;3.85;3.10;;;;;;;;;;6153275;23;20198;-93
2023/07/20 06:59:56;;;;;;;3.90;2.90;;;;;;;;;;6153100;23;20196;-93
2023/07/20 07:02:23;;;;;;;3.13;2.90;;;;;;;;;;6153549;23;20156;-93
2023/07/20 07:04:51;;;;;;;2.92;2.03;;;;;;;;;;6153435;23;20196;-95
2023/07/20 07:07:18;;;;;;;2.47;2.28;;;;;;;;;;6153238;23;20175;-93
2023/07/20 07:09:46;;;;;;;2.15;2.05;;;;;;;;;;6152924;23;20168;-95
2023/07/20 07:12:14;;;;;;;3.15;2.95;;;;;;;;;;6153499;23;20156;-94
2023/07/20 07:14:43;;;;;;;2.15;1.95;;;;;;;;;;6153132;23;20172;-95
2023/07/20 07:17:11;;;;;;;2.08;1.98;;;;;;;;;;6153353;23;20167;-95
2023/07/20 07:19:38;;;;;;;3.45;3.15;;;;;;;;;;6152855;23;20159;-94
2023/07/20 07:22:06;;;;;;;2.60;2.40;;;;;;;;;;6153141;23;20228;-93
2023/07/20 07:24:34;;;;;;;2.45;2.25;;;;;;;;;;6153261;23;20176;-94
2023/07/20 07:27:02;;;;;;;2.25;2.05;;;;;;;;;;6153468;23;20219;-94
2023/07/20 07:29:30;;;;;;;2.85;2.47;;;;;;;;;;6152948;23;20164;-93
2023/07/20 07:31:59;;;;;;;4.82;4.43;;;;;;;;;;6153190;23;20171;-95
2023/07/20 07:34:27;;;;;;;3.30;3.10;;;;;;;;;;6153084;23;20203;-94
2023/07/20 07:36:54;;;;;;;3.08;2.83;;;;;;;;;;6153388;23;20156;-93
2023/07/20 07:39:24;;;;;;;3.63;3.28;;;;;;;;;;6152839;23;20148;-94
2023/07/20 07:41:52;;;;;;;2.38;2.22;;;;;;;;;;6152854;23;20172;-94
2023/07/20 07:44:21;;;;;;;2.22;2.13;;;;;;;;;;6152905;23;20159;-92
2023/07/20 07:46:48;;;;;;;1.77;1.67;;;;;;;;;;6152970;23;20152;-93
2023/07/20 07:49:20;;;;;;;2.85;2.13;;;;;;;;;;6152643;23;20194;-94
2023/07/20 07:51:48;;;;;;;2.90;1.85;;;;;;;;;;6153087;23;20159;-96
2023/07/20 07:54:16;;;;;;;1.65;1.55;;;;;;;;;;6153265;23;20172;-95
2023/07/20 07:56:44;;;;;;;2.17;2.08;;;;;;;;;;6152839;23;20159;-95
2023/07/20 07:59:12;;;;;;;2.30;2.10;;;;;;;;;;6152916;23;20148;-94
2023/07/20 08:01:39;;;;;;;1.85;1.75;;;;;;;;;;6153210;23;20168;-96
2023/07/20 08:04:08;;;;;;;1.45;1.35;;;;;;;;;;6155092;23;20148;-94
2023/07/20 08:06:37;;;;;;;2.75;2.55;;;;;;;;;;6154883;23;20159;-95
2023/07/20 08:09:04;;;;;;;1.90;1.80;;;;;;;;;;6154858;23;20180;-95
2023/07/20 08:11:33;;;;;;;1.83;1.73;;;;;;;;;;6154484;23;20183;-95
2023/07/20 08:14:01;;;;;;;2.42;2.22;;;;;;;;;;6154653;23;20174;-94
2023/07/20 08:16:29;;;;;;;2.00;1.90;;;;;;;;;;6155272;23;20191;-94
2023/07/20 08:18:57;;;;;;;2.20;2.05;;;;;;;;;;6154683;23;20202;-96
2023/07/20 08:21:24;;;;;;;1.70;1.60;;;;;;;;;;6154626;23;20190;-95
2023/07/20 08:23:53;;;;;;;3.53;3.20;;;;;;;;;;6154927;23;20144;-94
2023/07/20 08:26:22;;;;;;;2.05;1.33;;;;;;;;;;6154629;23;20160;-94
2023/07/20 08:28:50;;;;;;;1.77;1.42;;;;;;;;;;6154021;23;20236;-93
2023/07/20 08:31:18;;;;;;;1.42;1.33;;;;;;;;;;6154230;23;20196;-94
2023/07/20 08:33:45;;;;;;;1.40;1.30;;;;;;;;;;6154846;23;20172;-93
2023/07/20 08:36:13;;;;;;;1.58;1.48;;;;;;;;;;6154517;23;20170;-94
2023/07/20 08:38:40;;;;;;;1.83;1.70;;;;;;;;;;6153850;23;20170;-95
2023/07/20 08:41:11;;;;;;;1.67;1.58;;;;;;;;;;6154307;23;20237;-93
2023/07/20 08:43:39;;;;;;;1.88;1.77;;;;;;;;;;6154427;23;20163;-95
2023/07/20 08:46:07;;;;;;;1.92;1.80;;;;;;;;;;6154358;23;20163;-94
2023/07/20 08:48:35;;;;;;;1.85;1.75;;;;;;;;;;6154518;23;20175;-95
2023/07/20 08:51:03;;;;;;;1.98;1.70;;;;;;;;;;6154288;23;20168;-94
2023/07/20 08:53:32;;;;;;;1.60;1.50;;;;;;;;;;6154437;23;20148;-93
2023/07/20 08:56:00;;;;;;;2.03;1.92;;;;;;;;;;6154142;23;20156;-93
2023/07/20 08:58:29;;;;;;;2.35;2.15;;;;;;;;;;6154583;23;20155;-94
2023/07/20 09:00:59;;;;;;;2.40;2.13;;;;;;;;;;6154094;23;20232;-93
2023/07/20 09:03:27;;;;;;;2.33;2.13;;;;;;;;;;6154432;23;20156;-93
2023/07/20 09:05:54;;;;;;;2.00;1.90;;;;;;;;;;6154622;23;20148;-94
2023/07/20 09:08:22;;;;;;;2.50;2.22;;;;;;;;;;6154452;23;20245;-94
2023/07/20 09:10:50;;;;;;;1.77;1.67;;;;;;;;;;6153929;23;20172;-93
2023/07/20 09:13:17;;;;;;;2.00;1.90;;;;;;;;;;6153870;23;20175;-92
2023/07/20 09:15:49;;;;;;;2.90;2.25;;;;;;;;;;6154228;23;20156;-93
2023/07/20 09:18:26;;;;;;;1.90;1.80;;;;;;;;;;6154479;23;20164;-93
2023/07/20 09:20:53;;;;;;;1.88;1.77;;;;;;;;;;6152055;23;20191;-94
2023/07/20 09:23:21;;;;;;;1.67;1.58;;;;;;;;;;6152306;23;20160;-91
2023/07/20 09:25:51;;;;;;;1.95;1.85;;;;;;;;;;6152704;23;20192;-92
2023/07/20 09:28:19;;;;;;;32.10;5.65;;;;;;;;;;6151475;23;20211;-92
2023/07/20 09:30:48;;;;;;;22.80;3.17;;;;;;;;;;6153712;23;20203;-92
2023/07/20 09:33:22;;;;;;;1.98;1.88;;;;;;;;;;6154273;23;20160;-92
2023/07/20 09:35:50;;;;;;;2.30;2.20;;;;;;;;;;6154259;23;20210;-92
2023/07/20 09:38:17;;;;;;;1.85;1.75;;;;;;;;;;6154114;23;20172;-89
2023/07/20 09:40:45;;;;;;;2.47;2.33;;;;;;;;;;6153567;23;20191;-93
2023/07/20 09:43:13;;;;;;;2.08;1.98;;;;;;;;;;6153751;23;20152;-90
2023/07/20 09:45:44;;;;;;;2.55;2.38;;;;;;;;;;6152768;23;20163;-92
2023/07/20 09:48:13;;;;;;;2.25;2.15;;;;;;;;;;6153271;23;20160;-92
2023/07/20 09:50:43;;;;;;;1.88;1.73;;;;;;;;;;6150527;23;20202;-93
2023/07/20 09:53:14;;;;;;;2.10;1.70;;;;;;;;;;6152411;23;20168;-93
2023/07/20 09:55:42;;;;;;;1.83;1.73;;;;;;;;;;6153395;23;20227;-90
2023/07/20 09:58:11;;;;;;;1.85;1.75;;;;;;;;;;6152952;23;20172;-92
2023/07/20 10:00:43;;;;;;;1.27;1.20;;;;;;;;;;6153342;23;20180;-91
2023/07/20 10:03:15;;;;;;;1.45;1.35;;;;;;;;;;6153816;23;20156;-92
2023/07/20 10:05:47;;;;;;;1.10;1.10;;;;;;;;;;6154291;23;20144;-93
2023/07/20 10:08:18;;;;;;;0.90;0.90;;;;;;;;;;6152684;23;20164;-90
2023/07/20 10:10:46;;;;;;;1.05;1.05;;;;;;;;;;6133028;23;20192;-92
2023/07/20 10:13:18;;;;;;;1.23;1.13;;;;;;;;;;6131061;23;20203;-91
2023/07/20 10:15:51;;;;;;;1.60;1.50;;;;;;;;;;6128194;23;20247;-91
2023/07/20 10:18:28;;;;;;;0.80;0.80;;;;;;;;;;6131912;23;20160;-93
2023/07/20 10:20:57;;;;;;;0.80;0.80;;;;;;;;;;6139672;23;20561;-92
2023/07/20 10:23:25;;;;;;;1.30;0.90;;;;;;;;;;6147925;23;20156;-92
2023/07/20 10:25:53;;;;;;;0.95;0.95;;;;;;;;;;6138068;23;20172;-92
2023/07/20 10:28:20;;;;;;;0.73;0.73;;;;;;;;;;6139703;23;20198;-93
2023/07/20 10:30:48;;;;;;;0.90;0.90;;;;;;;;;;6143714;23;20274;-93
2023/07/20 10:33:16;;;;;;;1.95;1.00;;;;;;;;;;6138790;23;20171;-92
2023/07/20 10:35:55;;;;;;;0.80;0.80;;;;;;;;;;6145125;23;20172;-93
2023/07/20 10:38:41;;;;;;;0.82;0.82;;;;;;;;;;6142805;23;20179;-93
2023/07/20 10:41:18;;;;;;;0.80;0.80;;;;;;;;;;6143216;23;20208;-93
2023/07/20 10:43:46;;;;;;;0.50;0.50;;;;;;;;;;6145192;23;20175;-93
2023/07/20 10:46:15;;;;;;;0.60;0.60;;;;;;;;;;6145938;23;20182;-93
2023/07/20 10:49:02;;;;;;;0.70;0.70;;;;;;;;;;6151700;23;20179;-91
2023/07/20 10:51:31;;;;;;;0.70;0.70;;;;;;;;;;6152734;23;20195;-92
2023/07/20 10:53:59;;;;;;;0.60;0.60;;;;;;;;;;6149122;23;20183;-92
2023/07/20 10:56:30;;;;;;;1.20;0.85;;;;;;;;;;6136995;23;20223;-92
2023/07/20 10:59:00;;;;;;;0.50;0.50;;;;;;;;;;6139663;23;20229;-91
2023/07/20 11:01:31;;;;;;;1.58;1.48;;;;;;;;;;6137085;23;20208;-92
2023/07/20 11:04:01;;;;;;;0.80;0.80;;;;;;;;;;6135245;23;20170;-92
2023/07/20 11:06:34;;;;;;;1.92;0.98;;;;;;;;;;6136615;23;20160;-92
2023/07/20 11:09:10;;;;;;;0.77;0.77;;;;;;;;;;6142919;23;20167;-93
2023/07/20 11:11:39;;;;;;;1.00;1.00;;;;;;;;;;6132749;23;20594;-93
2023/07/20 11:14:09;;;;;;;0.65;0.65;;;;;;;;;;6141759;23;20202;-93
2023/07/20 11:16:39;;;;;;;0.47;0.47;;;;;;;;;;6142163;23;20194;-93
2023/07/20 11:19:15;;;;;;;1.10;0.90;;;;;;;;;;6138980;23;20171;-92
2023/07/20 11:21:45;;;;;;;0.50;0.50;;;;;;;;;;6143597;23;20191;-93
2023/07/20 11:24:14;;;;;;;0.85;0.80;;;;;;;;;;6147772;23;20152;-93
2023/07/20 11:26:46;;;;;;;1.48;0.63;;;;;;;;;;6148050;23;20195;-93
2023/07/20 11:29:14;;;;;;;2.67;1.05;;;;;;;;;;6143433;23;20176;-92
2023/07/20 11:31:44;;;;;;;0.73;0.73;;;;;;;;;;6145032;23;20203;-92
2023/07/20 11:34:14;;;;;;;0.60;0.60;;;;;;;;;;6141296;23;20175;-93
2023/07/20 11:36:44;;;;;;;0.70;0.70;;;;;;;;;;6148372;23;20191;-93
2023/07/20 11:39:12;;;;;;;0.50;0.50;;;;;;;;;;6146363;23;20502;-93
2023/07/20 11:41:44;;;;;;;1.67;0.80;;;;;;;;;;6147022;23;20204;-93
2023/07/20 11:44:13;;;;;;;0.70;0.70;;;;;;;;;;6146238;23;20247;-92
2023/07/20 11:46:41;;;;;;;0.75;0.75;;;;;;;;;;6149240;23;20182;-92
2023/07/20 11:49:08;;;;;;;0.50;0.50;;;;;;;;;;6147520;23;20178;-93
2023/07/20 11:51:37;;;;;;;0.60;0.60;;;;;;;;;;6148020;23;20207;-92
2023/07/20 11:54:08;;;;;;;0.60;0.60;;;;;;;;;;6142612;23;20199;-92
2023/07/20 11:56:36;;;;;;;0.63;0.63;;;;;;;;;;6149064;23;20159;-92
2023/07/20 11:59:04;;;;;;;0.80;0.80;;;;;;;;;;6150359;23;20175;-92
2023/07/20 12:01:34;;;;;;;0.60;0.60;;;;;;;;;;6150773;23;20195;-93
2023/07/20 12:04:02;;;;;;;0.57;0.57;;;;;;;;;;6150386;23;20172;-93
2023/07/20 12:06:30;;;;;;;0.57;0.57;;;;;;;;;;6150080;23;20188;-92
2023/07/20 12:08:59;;;;;;;0.63;0.63;;;;;;;;;;6148792;23;20204;-93
2023/07/20 12:11:39;;;;;;;0.70;0.70;;;;;;;;;;6152317;23;20324;-92
2023/07/20 12:14:09;;;;;;;0.57;0.57;;;;;;;;;;6151439;23;20174;-91
2023/07/20 12:16:38;;;;;;;0.73;0.73;;;;;;;;;;6149662;23;20164;-93
2023/07/20 12:19:07;;;;;;;1.75;0.90;;;;;;;;;;6141415;23;20175;-92
2023/07/20 12:21:38;;;;;;;0.70;0.70;;;;;;;;;;6138035;23;20220;-92
2023/07/20 12:24:06;;;;;;;0.70;0.70;;;;;;;;;;6139157;23;20172;-92
2023/07/20 12:26:35;;;;;;;0.55;0.55;;;;;;;;;;6139949;23;20203;-92
2023/07/20 12:29:04;;;;;;;0.70;0.70;;;;;;;;;;6141450;23;20175;-92
2023/07/20 12:31:35;;;;;;;0.50;0.50;;;;;;;;;;6136069;23;20206;-93
2023/07/20 12:34:02;;;;;;;0.68;0.68;;;;;;;;;;6140401;23;20537;-91
2023/07/20 12:36:30;;;;;;;0.60;0.60;;;;;;;;;;6131714;23;20176;-92
2023/07/20 12:38:59;;;;;;;0.70;0.70;;;;;;;;;;6141093;23;20175;-92
2023/07/20 12:41:26;;;;;;;0.55;0.55;;;;;;;;;;6139526;23;20254;-92
2023/07/20 12:43:57;;;;;;;0.60;0.60;;;;;;;;;;6132809;23;20210;-92
2023/07/20 12:46:29;;;;;;;1.27;0.60;;;;;;;;;;6136645;23;20219;-93
2023/07/20 12:48:56;;;;;;;0.60;0.60;;;;;;;;;;6137984;23;20383;-93
2023/07/20 12:51:24;;;;;;;0.50;0.50;;;;;;;;;;6136225;23;20210;-92
2023/07/20 12:53:51;;;;;;;0.63;0.63;;;;;;;;;;6141336;23;20195;-93
2023/07/20 12:56:19;;;;;;;0.70;0.70;;;;;;;;;;6152446;23;20164;-91
2023/07/20 12:58:49;;;;;;;0.52;0.52;;;;;;;;;;6148532;23;20186;-92
2023/07/20 13:01:16;;;;;;;0.73;0.60;;;;;;;;;;6136828;23;20192;-93
2023/07/20 13:03:45;;;;;;;0.65;0.65;;;;;;;;;;6136120;23;20191;-92
2023/07/20 13:06:13;;;;;;;0.80;0.80;;;;;;;;;;6135267;23;20190;-92
2023/07/20 13:08:40;;;;;;;0.60;0.60;;;;;;;;;;6137027;23;20198;-92
2023/07/20 13:11:08;;;;;;;0.80;0.60;;;;;;;;;;6139067;23;20196;-92
2023/07/20 13:13:35;;;;;;;0.70;0.70;;;;;;;;;;6142803;23;20187;-92
2023/07/20 13:16:03;;;;;;;2.95;0.70;;;;;;;;;;6140644;23;20172;-92
2023/07/20 13:18:31;;;;;;;0.70;0.70;;;;;;;;;;6141288;23;20553;-92
2023/07/20 13:21:00;;;;;;;0.60;0.60;;;;;;;;;;6141483;23;20179;-93
2023/07/20 13:23:27;;;;;;;0.77;0.77;;;;;;;;;;6139364;23;20184;-93
2023/07/20 13:25:55;;;;;;;0.90;0.90;;;;;;;;;;6136519;23;20183;-93
2023/07/20 13:28:22;;;;;;;0.82;0.82;;;;;;;;;;6140976;23;20527;-92
2023/07/20 13:30:50;;;;;;;0.60;0.60;;;;;;;;;;6136217;23;20195;-92
2023/07/20 13:33:18;;;;;;;0.80;0.80;;;;;;;;;;6139267;23;20175;-93
2023/07/20 13:35:46;;;;;;;0.70;0.70;;;;;;;;;;6139162;23;20195;-92
2023/07/20 13:38:15;;;;;;;0.55;0.55;;;;;;;;;;6142182;23;20172;-92
2023/07/20 13:40:43;;;;;;;0.70;0.70;;;;;;;;;;6135429;23;20215;-92
2023/07/20 13:43:11;;;;;;;0.82;0.70;;;;;;;;;;6140842;23;20178;-93
2023/07/20 13:45:39;;;;;;;0.60;0.60;;;;;;;;;;6142798;23;20182;-93
2023/07/20 13:48:07;;;;;;;0.52;0.52;;;;;;;;;;6138505;23;20175;-92
2023/07/20 13:50:35;;;;;;;0.90;0.90;;;;;;;;;;6135918;23;20199;-92
2023/07/20 13:53:03;;;;;;;0.60;0.60;;;;;;;;;;6135633;23;20242;-92
2023/07/20 13:55:33;;;;;;;0.60;0.60;;;;;;;;;;6136271;23;20182;-92
2023/07/20 13:58:01;;;;;;;0.50;0.50;;;;;;;;;;6147768;23;20168;-92
2023/07/20 14:00:32;;;;;;;0.60;0.60;;;;;;;;;;6151749;23;20203;-91
2023/07/20 14:03:00;;;;;;;0.70;0.70;;;;;;;;;;6151523;23;20174;-92
2023/07/20 14:05:28;;;;;;;0.73;0.70;;;;;;;;;;6153916;23;20164;-91
2023/07/20 14:07:55;;;;;;;0.77;0.77;;;;;;;;;;6153814;23;20227;-91
2023/07/20 14:10:23;;;;;;;0.68;0.68;;;;;;;;;;6153023;23;20186;-92
2023/07/20 14:12:52;;;;;;;0.60;0.60;;;;;;;;;;6153322;23;20190;-92
2023/07/20 14:15:20;;;;;;;0.90;0.75;;;;;;;;;;6152728;23;20167;-91
2023/07/20 14:17:47;;;;;;;0.70;0.70;;;;;;;;;;6153183;23;20171;-92
2023/07/20 14:20:15;;;;;;;0.70;0.70;;;;;;;;;;6153159;23;20199;-91
2023/07/20 14:22:44;;;;;;;1.08;1.08;;;;;;;;;;6153813;23;20159;-92
2023/07/20 14:25:11;;;;;;;0.65;0.65;;;;;;;;;;6153292;23;20175;-91
2023/07/20 14:27:39;;;;;;;0.60;0.60;;;;;;;;;;6152805;23;20172;-91
2023/07/20 14:30:09;;;;;;;0.63;0.63;;;;;;;;;;6152478;23;20199;-92
2023/07/20 14:32:37;;;;;;;1.55;0.65;;;;;;;;;;6152620;23;20202;-89
2023/07/20 14:35:06;;;;;;;0.70;0.63;;;;;;;;;;6153038;23;20179;-91
2023/07/20 14:37:34;;;;;;;0.40;0.40;;;;;;;;;;6152974;23;20159;-91
2023/07/20 14:40:05;;;;;;;0.60;0.60;;;;;;;;;;6153130;23;20182;-92
2023/07/20 14:42:33;;;;;;;0.60;0.60;;;;;;;;;;6152920;23;20164;-91
2023/07/20 14:45:00;;;;;;;0.60;0.60;;;;;;;;;;6153337;23;20170;-90
2023/07/20 14:47:32;;;;;;;0.60;0.60;;;;;;;;;;6151901;23;20171;-90
2023/07/20 14:49:59;;;;;;;0.60;0.60;;;;;;;;;;6152987;23;20175;-91
2023/07/20 14:52:27;;;;;;;0.60;0.60;;;;;;;;;;6152931;23;20208;-91
2023/07/20 14:54:54;;;;;;;0.70;0.70;;;;;;;;;;6150709;23;20175;-91